sensor_id;sensor_type;location;lat;lon;timestamp;P1;durP1;ratioP1;P2;durP2;ratioP2
46719;SDS011;32452;51.382;-0.002;2023-04-15T00:00:53;13.45;;;5.70;;
46719;SDS011;32452;51.382;-0.002;2023-04-15T00:03:39;10.95;;;5.60;;
46719;SDS011;32452;51.382;-0.002;2023-04-15T00:06:29;10.18;;;4.50;;
46719;SDS011;32452;51.382;-0.002;2023-04-15T00:09:15;9.60;;;4.70;;
46719;SDS011;32452;51.382;-0.002;2023-04-15T00:12:01;10.70;;;5.05;;
46719;SDS011;32452;51.382;-0.002;2023-04-15T00:14:47;7.47;;;4.57;;
46719;SDS011;32452;51.382;-0.002;2023-04-15T00:17:33;10.57;;;4.72;;
46719;SDS011;32452;51.382;-0.002;2023-04-15T00:20:19;10.57;;;5.00;;
46719;SDS011;32452;51.382;-0.002;2023-04-15T00:23:05;11.27;;;5.65;;
46719;SDS011;32452;51.382;-0.002;2023-04-15T00:25:51;10.45;;;5.25;;
46719;SDS011;32452;51.382;-0.002;2023-04-15T00:28:37;10.65;;;4.93;;
46719;SDS011;32452;51.382;-0.002;2023-04-15T00:31:22;8.95;;;4.03;;
46719;SDS011;32452;51.382;-0.002;2023-04-15T00:34:08;5.82;;;3.08;;
46719;SDS011;32452;51.382;-0.002;2023-04-15T00:36:54;6.10;;;3.50;;
46719;SDS011;32452;51.382;-0.002;2023-04-15T00:39:39;5.82;;;3.15;;
46719;SDS011;32452;51.382;-0.002;2023-04-15T00:42:25;5.45;;;3.08;;
46719;SDS011;32452;51.382;-0.002;2023-04-15T00:45:12;5.13;;;2.97;;
46719;SDS011;32452;51.382;-0.002;2023-04-15T00:47:58;6.85;;;3.13;;
46719;SDS011;32452;51.382;-0.002;2023-04-15T00:50:44;5.97;;;2.85;;
46719;SDS011;32452;51.382;-0.002;2023-04-15T00:53:29;5.35;;;3.00;;
46719;SDS011;32452;51.382;-0.002;2023-04-15T00:56:15;6.03;;;3.50;;
46719;SDS011;32452;51.382;-0.002;2023-04-15T00:59:01;7.75;;;3.75;;
46719;SDS011;32452;51.382;-0.002;2023-04-15T01:01:46;7.38;;;4.25;;
46719;SDS011;32452;51.382;-0.002;2023-04-15T01:04:32;11.18;;;4.55;;
46719;SDS011;32452;51.382;-0.002;2023-04-15T01:07:19;7.47;;;4.22;;
46719;SDS011;32452;51.382;-0.002;2023-04-15T01:10:05;8.65;;;4.53;;
46719;SDS011;32452;51.382;-0.002;2023-04-15T01:12:52;11.30;;;5.40;;
46719;SDS011;32452;51.382;-0.002;2023-04-15T01:15:37;9.85;;;6.00;;
46719;SDS011;32452;51.382;-0.002;2023-04-15T01:18:23;12.18;;;6.68;;
46719;SDS011;32452;51.382;-0.002;2023-04-15T01:21:09;11.60;;;5.63;;
46719;SDS011;32452;51.382;-0.002;2023-04-15T01:23:54;11.98;;;6.43;;
46719;SDS011;32452;51.382;-0.002;2023-04-15T01:26:41;13.02;;;6.68;;
46719;SDS011;32452;51.382;-0.002;2023-04-15T01:29:29;14.07;;;7.00;;
46719;SDS011;32452;51.382;-0.002;2023-04-15T01:32:16;13.07;;;7.22;;
46719;SDS011;32452;51.382;-0.002;2023-04-15T01:35:02;12.80;;;7.00;;
46719;SDS011;32452;51.382;-0.002;2023-04-15T01:37:47;12.00;;;6.72;;
46719;SDS011;32452;51.382;-0.002;2023-04-15T01:40:34;13.05;;;7.63;;
46719;SDS011;32452;51.382;-0.002;2023-04-15T01:43:19;12.70;;;6.88;;
46719;SDS011;32452;51.382;-0.002;2023-04-15T01:46:05;11.35;;;6.90;;
46719;SDS011;32452;51.382;-0.002;2023-04-15T01:48:50;12.95;;;6.90;;
46719;SDS011;32452;51.382;-0.002;2023-04-15T01:51:36;9.68;;;6.07;;
46719;SDS011;32452;51.382;-0.002;2023-04-15T01:54:22;15.25;;;6.70;;
46719;SDS011;32452;51.382;-0.002;2023-04-15T01:57:07;12.85;;;6.70;;
46719;SDS011;32452;51.382;-0.002;2023-04-15T01:59:53;9.65;;;5.28;;
46719;SDS011;32452;51.382;-0.002;2023-04-15T02:02:40;10.38;;;4.65;;
46719;SDS011;32452;51.382;-0.002;2023-04-15T02:05:25;9.75;;;5.38;;
46719;SDS011;32452;51.382;-0.002;2023-04-15T02:08:11;10.98;;;5.05;;
46719;SDS011;32452;51.382;-0.002;2023-04-15T02:10:57;11.30;;;5.88;;
46719;SDS011;32452;51.382;-0.002;2023-04-15T02:13:42;13.68;;;6.82;;
46719;SDS011;32452;51.382;-0.002;2023-04-15T02:16:28;13.38;;;6.80;;
46719;SDS011;32452;51.382;-0.002;2023-04-15T02:19:13;13.93;;;7.10;;
46719;SDS011;32452;51.382;-0.002;2023-04-15T02:21:59;13.82;;;6.90;;
46719;SDS011;32452;51.382;-0.002;2023-04-15T02:24:45;11.25;;;6.32;;
46719;SDS011;32452;51.382;-0.002;2023-04-15T02:27:31;12.52;;;6.55;;
46719;SDS011;32452;51.382;-0.002;2023-04-15T02:30:17;15.93;;;7.65;;
46719;SDS011;32452;51.382;-0.002;2023-04-15T02:33:04;11.98;;;5.68;;
46719;SDS011;32452;51.382;-0.002;2023-04-15T02:35:49;11.77;;;5.22;;
46719;SDS011;32452;51.382;-0.002;2023-04-15T02:38:35;11.02;;;5.13;;
46719;SDS011;32452;51.382;-0.002;2023-04-15T02:41:22;9.27;;;5.18;;
46719;SDS011;32452;51.382;-0.002;2023-04-15T02:44:11;10.00;;;4.72;;
46719;SDS011;32452;51.382;-0.002;2023-04-15T02:46:57;7.53;;;4.43;;
46719;SDS011;32452;51.382;-0.002;2023-04-15T02:49:43;10.25;;;4.35;;
46719;SDS011;32452;51.382;-0.002;2023-04-15T02:52:29;9.23;;;4.22;;
46719;SDS011;32452;51.382;-0.002;2023-04-15T02:55:15;8.63;;;3.80;;
46719;SDS011;32452;51.382;-0.002;2023-04-15T02:58:02;6.47;;;3.83;;
46719;SDS011;32452;51.382;-0.002;2023-04-15T03:00:47;10.13;;;3.97;;
46719;SDS011;32452;51.382;-0.002;2023-04-15T03:03:35;10.27;;;4.30;;
46719;SDS011;32452;51.382;-0.002;2023-04-15T03:06:20;8.18;;;4.32;;
46719;SDS011;32452;51.382;-0.002;2023-04-15T03:09:06;9.30;;;4.72;;
46719;SDS011;32452;51.382;-0.002;2023-04-15T03:11:52;8.30;;;4.10;;
46719;SDS011;32452;51.382;-0.002;2023-04-15T03:14:38;11.35;;;4.72;;
46719;SDS011;32452;51.382;-0.002;2023-04-15T03:17:24;9.23;;;4.07;;
46719;SDS011;32452;51.382;-0.002;2023-04-15T03:20:09;10.27;;;4.95;;
46719;SDS011;32452;51.382;-0.002;2023-04-15T03:22:55;10.02;;;4.90;;
46719;SDS011;32452;51.382;-0.002;2023-04-15T03:25:40;9.25;;;4.97;;
46719;SDS011;32452;51.382;-0.002;2023-04-15T03:28:26;9.50;;;4.57;;
46719;SDS011;32452;51.382;-0.002;2023-04-15T03:31:11;10.13;;;4.85;;
46719;SDS011;32452;51.382;-0.002;2023-04-15T03:33:57;11.07;;;4.97;;
46719;SDS011;32452;51.382;-0.002;2023-04-15T03:36:43;11.05;;;5.40;;
46719;SDS011;32452;51.382;-0.002;2023-04-15T03:39:28;11.68;;;5.05;;
46719;SDS011;32452;51.382;-0.002;2023-04-15T03:42:14;10.70;;;4.85;;
46719;SDS011;32452;51.382;-0.002;2023-04-15T03:44:59;8.77;;;4.65;;
46719;SDS011;32452;51.382;-0.002;2023-04-15T03:47:45;9.23;;;5.05;;
46719;SDS011;32452;51.382;-0.002;2023-04-15T03:50:31;11.20;;;5.55;;
46719;SDS011;32452;51.382;-0.002;2023-04-15T03:53:17;9.15;;;5.25;;
46719;SDS011;32452;51.382;-0.002;2023-04-15T03:56:02;10.93;;;6.05;;
46719;SDS011;32452;51.382;-0.002;2023-04-15T03:58:48;10.63;;;5.95;;
46719;SDS011;32452;51.382;-0.002;2023-04-15T04:01:33;11.63;;;5.80;;
46719;SDS011;32452;51.382;-0.002;2023-04-15T04:04:19;10.73;;;5.80;;
46719;SDS011;32452;51.382;-0.002;2023-04-15T04:07:05;9.43;;;5.45;;
46719;SDS011;32452;51.382;-0.002;2023-04-15T04:09:50;11.30;;;5.65;;
46719;SDS011;32452;51.382;-0.002;2023-04-15T04:12:36;11.05;;;5.82;;
46719;SDS011;32452;51.382;-0.002;2023-04-15T04:15:21;11.73;;;5.72;;
46719;SDS011;32452;51.382;-0.002;2023-04-15T04:18:07;11.43;;;6.47;;
46719;SDS011;32452;51.382;-0.002;2023-04-15T04:20:53;13.20;;;6.35;;
46719;SDS011;32452;51.382;-0.002;2023-04-15T04:23:39;11.15;;;6.20;;
46719;SDS011;32452;51.382;-0.002;2023-04-15T04:26:24;10.35;;;5.32;;
46719;SDS011;32452;51.382;-0.002;2023-04-15T04:29:10;11.27;;;5.88;;
46719;SDS011;32452;51.382;-0.002;2023-04-15T04:31:56;11.70;;;6.68;;
46719;SDS011;32452;51.382;-0.002;2023-04-15T04:34:41;10.93;;;6.05;;
46719;SDS011;32452;51.382;-0.002;2023-04-15T04:37:27;10.40;;;5.53;;
46719;SDS011;32452;51.382;-0.002;2023-04-15T04:40:12;12.38;;;5.93;;
46719;SDS011;32452;51.382;-0.002;2023-04-15T04:42:58;12.25;;;5.65;;
46719;SDS011;32452;51.382;-0.002;2023-04-15T04:45:44;12.80;;;6.70;;
46719;SDS011;32452;51.382;-0.002;2023-04-15T04:48:30;10.30;;;5.45;;
46719;SDS011;32452;51.382;-0.002;2023-04-15T04:51:16;11.13;;;5.85;;
46719;SDS011;32452;51.382;-0.002;2023-04-15T04:54:02;10.55;;;5.68;;
46719;SDS011;32452;51.382;-0.002;2023-04-15T04:56:48;11.20;;;5.57;;
46719;SDS011;32452;51.382;-0.002;2023-04-15T04:59:34;11.90;;;5.85;;
46719;SDS011;32452;51.382;-0.002;2023-04-15T05:02:19;10.27;;;5.65;;
46719;SDS011;32452;51.382;-0.002;2023-04-15T05:05:05;11.13;;;6.03;;
46719;SDS011;32452;51.382;-0.002;2023-04-15T05:07:51;12.35;;;6.63;;
46719;SDS011;32452;51.382;-0.002;2023-04-15T05:10:37;12.40;;;6.22;;
46719;SDS011;32452;51.382;-0.002;2023-04-15T05:13:22;11.60;;;6.60;;
46719;SDS011;32452;51.382;-0.002;2023-04-15T05:16:08;13.55;;;6.45;;
46719;SDS011;32452;51.382;-0.002;2023-04-15T05:18:54;13.80;;;7.30;;
46719;SDS011;32452;51.382;-0.002;2023-04-15T05:21:39;11.35;;;6.28;;
46719;SDS011;32452;51.382;-0.002;2023-04-15T05:24:25;12.70;;;7.15;;
46719;SDS011;32452;51.382;-0.002;2023-04-15T05:27:11;12.63;;;6.40;;
46719;SDS011;32452;51.382;-0.002;2023-04-15T05:29:56;13.13;;;7.07;;
46719;SDS011;32452;51.382;-0.002;2023-04-15T05:32:41;12.63;;;6.97;;
46719;SDS011;32452;51.382;-0.002;2023-04-15T05:35:27;15.05;;;7.53;;
46719;SDS011;32452;51.382;-0.002;2023-04-15T05:38:12;11.23;;;6.40;;
46719;SDS011;32452;51.382;-0.002;2023-04-15T05:40:58;13.00;;;7.10;;
46719;SDS011;32452;51.382;-0.002;2023-04-15T05:43:43;13.68;;;7.53;;
46719;SDS011;32452;51.382;-0.002;2023-04-15T05:46:29;13.05;;;7.60;;
46719;SDS011;32452;51.382;-0.002;2023-04-15T05:49:15;12.07;;;7.20;;
46719;SDS011;32452;51.382;-0.002;2023-04-15T05:52:01;15.85;;;7.63;;
46719;SDS011;32452;51.382;-0.002;2023-04-15T05:54:47;12.80;;;7.60;;
46719;SDS011;32452;51.382;-0.002;2023-04-15T05:57:32;12.73;;;6.93;;
46719;SDS011;32452;51.382;-0.002;2023-04-15T06:00:18;13.65;;;8.07;;
46719;SDS011;32452;51.382;-0.002;2023-04-15T06:03:03;15.00;;;8.43;;
46719;SDS011;32452;51.382;-0.002;2023-04-15T06:05:50;14.80;;;9.27;;
46719;SDS011;32452;51.382;-0.002;2023-04-15T06:08:35;16.92;;;9.00;;
46719;SDS011;32452;51.382;-0.002;2023-04-15T06:11:21;15.23;;;8.73;;
46719;SDS011;32452;51.382;-0.002;2023-04-15T06:14:08;15.63;;;8.98;;
46719;SDS011;32452;51.382;-0.002;2023-04-15T06:16:54;15.55;;;9.23;;
46719;SDS011;32452;51.382;-0.002;2023-04-15T06:19:39;15.40;;;9.77;;
46719;SDS011;32452;51.382;-0.002;2023-04-15T06:22:25;17.85;;;9.55;;
46719;SDS011;32452;51.382;-0.002;2023-04-15T06:25:10;16.83;;;8.63;;
46719;SDS011;32452;51.382;-0.002;2023-04-15T06:27:57;14.43;;;8.65;;
46719;SDS011;32452;51.382;-0.002;2023-04-15T06:30:42;13.80;;;7.65;;
46719;SDS011;32452;51.382;-0.002;2023-04-15T06:33:28;14.45;;;8.52;;
46719;SDS011;32452;51.382;-0.002;2023-04-15T06:36:13;13.80;;;8.05;;
46719;SDS011;32452;51.382;-0.002;2023-04-15T06:38:59;13.10;;;7.63;;
46719;SDS011;32452;51.382;-0.002;2023-04-15T06:41:46;14.00;;;8.30;;
46719;SDS011;32452;51.382;-0.002;2023-04-15T06:44:32;14.23;;;8.20;;
46719;SDS011;32452;51.382;-0.002;2023-04-15T06:47:18;13.55;;;8.38;;
46719;SDS011;32452;51.382;-0.002;2023-04-15T06:50:04;13.13;;;7.07;;
46719;SDS011;32452;51.382;-0.002;2023-04-15T06:52:50;11.57;;;6.78;;
46719;SDS011;32452;51.382;-0.002;2023-04-15T06:55:36;13.80;;;7.18;;
46719;SDS011;32452;51.382;-0.002;2023-04-15T06:58:21;12.52;;;7.10;;
46719;SDS011;32452;51.382;-0.002;2023-04-15T07:01:07;13.38;;;8.27;;
46719;SDS011;32452;51.382;-0.002;2023-04-15T07:03:52;10.80;;;6.45;;
46719;SDS011;32452;51.382;-0.002;2023-04-15T07:06:38;11.18;;;6.88;;
46719;SDS011;32452;51.382;-0.002;2023-04-15T07:09:24;12.52;;;6.75;;
46719;SDS011;32452;51.382;-0.002;2023-04-15T07:12:10;12.45;;;7.57;;
46719;SDS011;32452;51.382;-0.002;2023-04-15T07:14:56;11.75;;;7.13;;
46719;SDS011;32452;51.382;-0.002;2023-04-15T07:17:41;10.35;;;6.88;;
46719;SDS011;32452;51.382;-0.002;2023-04-15T07:20:27;11.60;;;6.97;;
46719;SDS011;32452;51.382;-0.002;2023-04-15T07:23:12;11.65;;;6.50;;
46719;SDS011;32452;51.382;-0.002;2023-04-15T07:25:58;11.73;;;6.95;;
46719;SDS011;32452;51.382;-0.002;2023-04-15T07:28:44;11.60;;;6.78;;
46719;SDS011;32452;51.382;-0.002;2023-04-15T07:31:30;11.02;;;6.22;;
46719;SDS011;32452;51.382;-0.002;2023-04-15T07:34:16;10.18;;;5.93;;
46719;SDS011;32452;51.382;-0.002;2023-04-15T07:37:02;10.38;;;7.00;;
46719;SDS011;32452;51.382;-0.002;2023-04-15T07:39:48;11.50;;;6.50;;
46719;SDS011;32452;51.382;-0.002;2023-04-15T07:42:34;12.98;;;7.00;;
46719;SDS011;32452;51.382;-0.002;2023-04-15T07:45:22;11.40;;;6.65;;
46719;SDS011;32452;51.382;-0.002;2023-04-15T07:48:07;11.18;;;7.68;;
46719;SDS011;32452;51.382;-0.002;2023-04-15T07:50:53;13.88;;;7.13;;
46719;SDS011;32452;51.382;-0.002;2023-04-15T07:53:39;10.90;;;6.90;;
46719;SDS011;32452;51.382;-0.002;2023-04-15T07:56:24;13.25;;;8.02;;
46719;SDS011;32452;51.382;-0.002;2023-04-15T07:59:10;12.20;;;7.45;;
46719;SDS011;32452;51.382;-0.002;2023-04-15T08:01:56;11.98;;;7.00;;
46719;SDS011;32452;51.382;-0.002;2023-04-15T08:04:42;12.48;;;7.00;;
46719;SDS011;32452;51.382;-0.002;2023-04-15T08:07:28;15.27;;;7.68;;
46719;SDS011;32452;51.382;-0.002;2023-04-15T08:10:13;14.40;;;7.65;;
46719;SDS011;32452;51.382;-0.002;2023-04-15T08:12:59;11.80;;;7.13;;
46719;SDS011;32452;51.382;-0.002;2023-04-15T08:15:45;17.10;;;7.68;;
46719;SDS011;32452;51.382;-0.002;2023-04-15T08:18:37;12.10;;;6.95;;
46719;SDS011;32452;51.382;-0.002;2023-04-15T08:21:22;14.07;;;7.10;;
46719;SDS011;32452;51.382;-0.002;2023-04-15T08:24:08;13.23;;;7.60;;
46719;SDS011;32452;51.382;-0.002;2023-04-15T08:26:55;12.82;;;7.35;;
46719;SDS011;32452;51.382;-0.002;2023-04-15T08:29:41;12.90;;;7.32;;
46719;SDS011;32452;51.382;-0.002;2023-04-15T08:32:26;14.88;;;8.25;;
46719;SDS011;32452;51.382;-0.002;2023-04-15T08:35:12;15.48;;;7.80;;
46719;SDS011;32452;51.382;-0.002;2023-04-15T08:37:58;12.13;;;7.68;;
46719;SDS011;32452;51.382;-0.002;2023-04-15T08:40:44;13.13;;;7.88;;
46719;SDS011;32452;51.382;-0.002;2023-04-15T08:43:33;13.27;;;7.72;;
46719;SDS011;32452;51.382;-0.002;2023-04-15T08:46:20;13.65;;;7.97;;
46719;SDS011;32452;51.382;-0.002;2023-04-15T08:49:05;14.18;;;8.45;;
46719;SDS011;32452;51.382;-0.002;2023-04-15T08:51:58;13.27;;;8.38;;
46719;SDS011;32452;51.382;-0.002;2023-04-15T08:54:44;12.10;;;8.02;;
46719;SDS011;32452;51.382;-0.002;2023-04-15T08:57:30;13.70;;;8.20;;
46719;SDS011;32452;51.382;-0.002;2023-04-15T09:00:17;17.73;;;9.50;;
46719;SDS011;32452;51.382;-0.002;2023-04-15T09:03:06;14.50;;;9.30;;
46719;SDS011;32452;51.382;-0.002;2023-04-15T09:05:53;14.90;;;8.63;;
46719;SDS011;32452;51.382;-0.002;2023-04-15T09:08:40;14.65;;;8.90;;
46719;SDS011;32452;51.382;-0.002;2023-04-15T09:11:26;16.73;;;8.20;;
46719;SDS011;32452;51.382;-0.002;2023-04-15T09:14:14;14.70;;;9.15;;
46719;SDS011;32452;51.382;-0.002;2023-04-15T09:17:01;14.68;;;8.43;;
46719;SDS011;32452;51.382;-0.002;2023-04-15T09:19:48;13.55;;;8.88;;
46719;SDS011;32452;51.382;-0.002;2023-04-15T09:22:35;14.70;;;9.10;;
46719;SDS011;32452;51.382;-0.002;2023-04-15T09:28:08;25.77;;;10.88;;
46719;SDS011;32452;51.382;-0.002;2023-04-15T09:30:58;16.85;;;9.43;;
46719;SDS011;32452;51.382;-0.002;2023-04-15T09:33:54;16.20;;;9.88;;
46719;SDS011;32452;51.382;-0.002;2023-04-15T09:39:47;18.27;;;9.93;;
46719;SDS011;32452;51.382;-0.002;2023-04-15T09:42:35;14.70;;;9.68;;
46719;SDS011;32452;51.382;-0.002;2023-04-15T09:45:21;14.13;;;9.27;;
46719;SDS011;32452;51.382;-0.002;2023-04-15T09:51:07;12.10;;;8.10;;
46719;SDS011;32452;51.382;-0.002;2023-04-15T09:53:53;11.95;;;7.13;;
46719;SDS011;32452;51.382;-0.002;2023-04-15T09:56:40;11.30;;;6.22;;
46719;SDS011;32452;51.382;-0.002;2023-04-15T09:59:25;11.77;;;5.78;;
46719;SDS011;32452;51.382;-0.002;2023-04-15T10:02:12;12.38;;;7.30;;
46719;SDS011;32452;51.382;-0.002;2023-04-15T10:04:59;12.18;;;7.78;;
46719;SDS011;32452;51.382;-0.002;2023-04-15T10:07:46;11.00;;;7.00;;
46719;SDS011;32452;51.382;-0.002;2023-04-15T10:10:32;13.07;;;7.25;;
46719;SDS011;32452;51.382;-0.002;2023-04-15T10:13:19;15.65;;;7.53;;
46719;SDS011;32452;51.382;-0.002;2023-04-15T10:16:09;11.07;;;6.75;;
46719;SDS011;32452;51.382;-0.002;2023-04-15T10:18:59;12.10;;;7.15;;
46719;SDS011;32452;51.382;-0.002;2023-04-15T10:21:47;15.48;;;7.65;;
46719;SDS011;32452;51.382;-0.002;2023-04-15T10:24:37;14.80;;;6.90;;
46719;SDS011;32452;51.382;-0.002;2023-04-15T10:27:24;11.65;;;6.80;;
46719;SDS011;32452;51.382;-0.002;2023-04-15T10:30:11;11.75;;;7.00;;
46719;SDS011;32452;51.382;-0.002;2023-04-15T10:32:58;16.10;;;7.65;;
46719;SDS011;32452;51.382;-0.002;2023-04-15T10:35:46;13.13;;;7.00;;
46719;SDS011;32452;51.382;-0.002;2023-04-15T10:38:40;11.55;;;7.38;;
46719;SDS011;32452;51.382;-0.002;2023-04-15T10:41:28;10.73;;;6.90;;
46719;SDS011;32452;51.382;-0.002;2023-04-15T10:44:18;11.25;;;6.88;;
46719;SDS011;32452;51.382;-0.002;2023-04-15T10:47:13;13.25;;;6.32;;
46719;SDS011;32452;51.382;-0.002;2023-04-15T10:50:05;14.27;;;6.18;;
46719;SDS011;32452;51.382;-0.002;2023-04-15T10:52:52;9.23;;;5.93;;
46719;SDS011;32452;51.382;-0.002;2023-04-15T10:55:40;11.68;;;6.13;;
46719;SDS011;32452;51.382;-0.002;2023-04-15T10:58:26;11.15;;;5.30;;
46719;SDS011;32452;51.382;-0.002;2023-04-15T11:01:48;9.80;;;5.35;;
46719;SDS011;32452;51.382;-0.002;2023-04-15T11:04:55;12.52;;;5.95;;
46719;SDS011;32452;51.382;-0.002;2023-04-15T11:13:16;9.88;;;5.05;;
46719;SDS011;32452;51.382;-0.002;2023-04-15T11:16:05;14.45;;;5.63;;
46719;SDS011;32452;51.382;-0.002;2023-04-15T11:18:54;10.23;;;4.90;;
46719;SDS011;32452;51.382;-0.002;2023-04-15T11:21:40;8.98;;;3.65;;
46719;SDS011;32452;51.382;-0.002;2023-04-15T11:24:26;7.85;;;4.35;;
46719;SDS011;32452;51.382;-0.002;2023-04-15T11:27:19;8.80;;;4.30;;
46719;SDS011;32452;51.382;-0.002;2023-04-15T11:30:17;9.38;;;3.92;;
46719;SDS011;32452;51.382;-0.002;2023-04-15T11:33:07;7.13;;;3.97;;
46719;SDS011;32452;51.382;-0.002;2023-04-15T11:35:55;9.00;;;4.10;;
46719;SDS011;32452;51.382;-0.002;2023-04-15T11:38:43;7.82;;;4.32;;
46719;SDS011;32452;51.382;-0.002;2023-04-15T11:41:31;9.43;;;4.25;;
46719;SDS011;32452;51.382;-0.002;2023-04-15T11:44:17;12.85;;;4.43;;
46719;SDS011;32452;51.382;-0.002;2023-04-15T11:47:20;9.55;;;4.60;;
46719;SDS011;32452;51.382;-0.002;2023-04-15T11:50:20;9.20;;;4.55;;
46719;SDS011;32452;51.382;-0.002;2023-04-15T11:53:08;10.20;;;4.72;;
46719;SDS011;32452;51.382;-0.002;2023-04-15T11:55:55;8.13;;;4.53;;
46719;SDS011;32452;51.382;-0.002;2023-04-15T11:58:41;11.27;;;4.38;;
46719;SDS011;32452;51.382;-0.002;2023-04-15T12:01:30;13.15;;;3.58;;
46719;SDS011;32452;51.382;-0.002;2023-04-15T12:04:20;9.77;;;3.67;;
46719;SDS011;32452;51.382;-0.002;2023-04-15T12:07:09;8.60;;;3.38;;
46719;SDS011;32452;51.382;-0.002;2023-04-15T12:09:56;7.55;;;3.95;;
46719;SDS011;32452;51.382;-0.002;2023-04-15T12:12:42;6.95;;;3.20;;
46719;SDS011;32452;51.382;-0.002;2023-04-15T12:15:28;8.95;;;3.97;;
46719;SDS011;32452;51.382;-0.002;2023-04-15T12:18:17;8.40;;;4.18;;
46719;SDS011;32452;51.382;-0.002;2023-04-15T12:21:08;9.00;;;3.78;;
46719;SDS011;32452;51.382;-0.002;2023-04-15T12:23:55;9.18;;;3.90;;
46719;SDS011;32452;51.382;-0.002;2023-04-15T12:29:28;8.43;;;3.30;;
46719;SDS011;32452;51.382;-0.002;2023-04-15T12:32:14;7.90;;;4.40;;
46719;SDS011;32452;51.382;-0.002;2023-04-15T12:35:01;10.00;;;4.15;;
46719;SDS011;32452;51.382;-0.002;2023-04-15T12:37:46;8.68;;;4.20;;
46719;SDS011;32452;51.382;-0.002;2023-04-15T12:40:32;11.25;;;3.80;;
46719;SDS011;32452;51.382;-0.002;2023-04-15T12:43:17;8.48;;;3.65;;
46719;SDS011;32452;51.382;-0.002;2023-04-15T12:46:03;7.03;;;3.60;;
46719;SDS011;32452;51.382;-0.002;2023-04-15T12:48:50;8.45;;;4.18;;
46719;SDS011;32452;51.382;-0.002;2023-04-15T12:51:37;8.02;;;3.95;;
46719;SDS011;32452;51.382;-0.002;2023-04-15T12:54:23;8.85;;;3.53;;
46719;SDS011;32452;51.382;-0.002;2023-04-15T12:57:09;7.93;;;3.72;;
46719;SDS011;32452;51.382;-0.002;2023-04-15T12:59:55;10.45;;;4.07;;
46719;SDS011;32452;51.382;-0.002;2023-04-15T13:02:42;8.43;;;3.67;;
46719;SDS011;32452;51.382;-0.002;2023-04-15T13:05:28;8.13;;;3.42;;
46719;SDS011;32452;51.382;-0.002;2023-04-15T13:08:14;8.15;;;3.67;;
46719;SDS011;32452;51.382;-0.002;2023-04-15T13:11:02;9.32;;;4.13;;
46719;SDS011;32452;51.382;-0.002;2023-04-15T13:13:47;6.72;;;4.10;;
46719;SDS011;32452;51.382;-0.002;2023-04-15T13:16:33;10.65;;;4.70;;
46719;SDS011;32452;51.382;-0.002;2023-04-15T13:19:20;8.85;;;3.72;;
46719;SDS011;32452;51.382;-0.002;2023-04-15T13:22:06;10.68;;;3.83;;
46719;SDS011;32452;51.382;-0.002;2023-04-15T13:24:52;8.20;;;3.70;;
46719;SDS011;32452;51.382;-0.002;2023-04-15T13:27:38;8.43;;;3.45;;
46719;SDS011;32452;51.382;-0.002;2023-04-15T13:30:23;10.10;;;3.90;;
46719;SDS011;32452;51.382;-0.002;2023-04-15T13:33:09;10.65;;;4.30;;
46719;SDS011;32452;51.382;-0.002;2023-04-15T13:35:55;7.15;;;3.75;;
46719;SDS011;32452;51.382;-0.002;2023-04-15T13:38:41;6.85;;;3.28;;
46719;SDS011;32452;51.382;-0.002;2023-04-15T13:41:27;9.52;;;3.90;;
46719;SDS011;32452;51.382;-0.002;2023-04-15T13:44:12;10.05;;;3.95;;
46719;SDS011;32452;51.382;-0.002;2023-04-15T13:46:58;8.18;;;3.65;;
46719;SDS011;32452;51.382;-0.002;2023-04-15T13:49:44;9.02;;;3.83;;
46719;SDS011;32452;51.382;-0.002;2023-04-15T13:52:30;11.07;;;3.58;;
46719;SDS011;32452;51.382;-0.002;2023-04-15T13:55:15;9.32;;;4.03;;
46719;SDS011;32452;51.382;-0.002;2023-04-15T13:58:05;5.93;;;3.35;;
46719;SDS011;32452;51.382;-0.002;2023-04-15T14:00:50;6.20;;;3.20;;
46719;SDS011;32452;51.382;-0.002;2023-04-15T14:03:36;6.38;;;3.20;;
46719;SDS011;32452;51.382;-0.002;2023-04-15T14:06:22;7.72;;;2.72;;
46719;SDS011;32452;51.382;-0.002;2023-04-15T14:09:08;10.48;;;3.03;;
46719;SDS011;32452;51.382;-0.002;2023-04-15T14:11:54;6.85;;;2.65;;
46719;SDS011;32452;51.382;-0.002;2023-04-15T14:14:40;10.10;;;3.50;;
46719;SDS011;32452;51.382;-0.002;2023-04-15T14:17:25;7.85;;;3.22;;
46719;SDS011;32452;51.382;-0.002;2023-04-15T14:20:11;10.20;;;4.05;;
46719;SDS011;32452;51.382;-0.002;2023-04-15T14:23:00;8.10;;;3.13;;
46719;SDS011;32452;51.382;-0.002;2023-04-15T14:25:46;7.93;;;2.97;;
46719;SDS011;32452;51.382;-0.002;2023-04-15T14:28:32;8.05;;;3.00;;
46719;SDS011;32452;51.382;-0.002;2023-04-15T14:31:19;8.80;;;3.00;;
46719;SDS011;32452;51.382;-0.002;2023-04-15T14:34:05;6.90;;;3.30;;
46719;SDS011;32452;51.382;-0.002;2023-04-15T14:36:51;9.02;;;3.95;;
46719;SDS011;32452;51.382;-0.002;2023-04-15T14:39:40;8.20;;;3.22;;
46719;SDS011;32452;51.382;-0.002;2023-04-15T14:42:25;9.85;;;3.83;;
46719;SDS011;32452;51.382;-0.002;2023-04-15T14:45:11;8.00;;;3.35;;
46719;SDS011;32452;51.382;-0.002;2023-04-15T14:47:56;9.57;;;4.03;;
46719;SDS011;32452;51.382;-0.002;2023-04-15T14:50:43;8.50;;;3.60;;
46719;SDS011;32452;51.382;-0.002;2023-04-15T14:53:28;10.48;;;4.43;;
46719;SDS011;32452;51.382;-0.002;2023-04-15T14:56:14;8.63;;;4.03;;
46719;SDS011;32452;51.382;-0.002;2023-04-15T14:58:59;7.50;;;3.17;;
46719;SDS011;32452;51.382;-0.002;2023-04-15T15:01:46;5.90;;;3.10;;
46719;SDS011;32452;51.382;-0.002;2023-04-15T15:04:32;9.73;;;4.28;;
46719;SDS011;32452;51.382;-0.002;2023-04-15T15:07:21;8.90;;;4.05;;
46719;SDS011;32452;51.382;-0.002;2023-04-15T15:10:07;10.05;;;3.95;;
46719;SDS011;32452;51.382;-0.002;2023-04-15T15:12:53;10.52;;;3.90;;
46719;SDS011;32452;51.382;-0.002;2023-04-15T15:15:38;9.15;;;4.00;;
46719;SDS011;32452;51.382;-0.002;2023-04-15T15:18:24;8.13;;;3.30;;
46719;SDS011;32452;51.382;-0.002;2023-04-15T15:21:11;11.02;;;3.65;;
46719;SDS011;32452;51.382;-0.002;2023-04-15T15:23:57;9.25;;;3.55;;
46719;SDS011;32452;51.382;-0.002;2023-04-15T15:26:43;10.63;;;3.40;;
46719;SDS011;32452;51.382;-0.002;2023-04-15T15:29:28;10.02;;;3.80;;
46719;SDS011;32452;51.382;-0.002;2023-04-15T15:32:14;9.20;;;3.42;;
46719;SDS011;32452;51.382;-0.002;2023-04-15T15:35:01;9.55;;;3.42;;
46719;SDS011;32452;51.382;-0.002;2023-04-15T15:37:47;7.75;;;3.00;;
46719;SDS011;32452;51.382;-0.002;2023-04-15T15:40:33;7.32;;;4.05;;
46719;SDS011;32452;51.382;-0.002;2023-04-15T15:43:23;9.38;;;3.80;;
46719;SDS011;32452;51.382;-0.002;2023-04-15T15:46:09;8.45;;;4.20;;
46719;SDS011;32452;51.382;-0.002;2023-04-15T15:48:55;10.32;;;3.53;;
46719;SDS011;32452;51.382;-0.002;2023-04-15T15:51:41;8.65;;;3.75;;
46719;SDS011;32452;51.382;-0.002;2023-04-15T15:54:30;12.70;;;3.90;;
46719;SDS011;32452;51.382;-0.002;2023-04-15T15:57:17;10.48;;;3.72;;
46719;SDS011;32452;51.382;-0.002;2023-04-15T16:00:02;7.60;;;3.42;;
46719;SDS011;32452;51.382;-0.002;2023-04-15T16:02:56;8.45;;;3.75;;
46719;SDS011;32452;51.382;-0.002;2023-04-15T16:05:45;10.52;;;3.70;;
46719;SDS011;32452;51.382;-0.002;2023-04-15T16:08:34;12.85;;;4.13;;
46719;SDS011;32452;51.382;-0.002;2023-04-15T16:11:20;10.35;;;4.10;;
46719;SDS011;32452;51.382;-0.002;2023-04-15T16:14:06;7.95;;;4.15;;
46719;SDS011;32452;51.382;-0.002;2023-04-15T16:16:51;10.70;;;4.20;;
46719;SDS011;32452;51.382;-0.002;2023-04-15T16:19:37;10.38;;;4.55;;
46719;SDS011;32452;51.382;-0.002;2023-04-15T16:22:22;11.65;;;4.78;;
46719;SDS011;32452;51.382;-0.002;2023-04-15T16:25:09;12.70;;;4.57;;
46719;SDS011;32452;51.382;-0.002;2023-04-15T16:27:54;10.68;;;4.75;;
46719;SDS011;32452;51.382;-0.002;2023-04-15T16:30:55;11.10;;;4.30;;
46719;SDS011;32452;51.382;-0.002;2023-04-15T16:33:41;10.77;;;4.45;;
46719;SDS011;32452;51.382;-0.002;2023-04-15T16:36:26;13.13;;;4.47;;